sensor_id;sensor_type;location;lat;lon;timestamp;P1;durP1;ratioP1;P2;durP2;ratioP2
29202;SDS011;16245;51.170;4.884;2022-12-16T00:00:12;50.22;;;31.20;;
29202;SDS011;16245;51.170;4.884;2022-12-16T00:02:40;50.47;;;30.30;;
29202;SDS011;16245;51.170;4.884;2022-12-16T00:05:06;45.58;;;28.85;;
29202;SDS011;16245;51.170;4.884;2022-12-16T00:07:32;52.95;;;30.17;;
29202;SDS011;16245;51.170;4.884;2022-12-16T00:09:58;50.83;;;30.98;;
29202;SDS011;16245;51.170;4.884;2022-12-16T00:12:23;44.85;;;28.13;;
29202;SDS011;16245;51.170;4.884;2022-12-16T00:14:49;54.75;;;28.52;;
29202;SDS011;16245;51.170;4.884;2022-12-16T00:17:15;50.13;;;30.15;;
29202;SDS011;16245;51.170;4.884;2022-12-16T00:19:40;53.05;;;29.60;;
29202;SDS011;16245;51.170;4.884;2022-12-16T00:22:06;47.45;;;28.70;;
29202;SDS011;16245;51.170;4.884;2022-12-16T00:24:32;43.75;;;29.27;;
29202;SDS011;16245;51.170;4.884;2022-12-16T00:26:57;46.08;;;27.02;;
29202;SDS011;16245;51.170;4.884;2022-12-16T00:29:23;51.33;;;29.90;;
29202;SDS011;16245;51.170;4.884;2022-12-16T00:31:49;44.97;;;29.50;;
29202;SDS011;16245;51.170;4.884;2022-12-16T00:34:15;45.10;;;27.98;;
29202;SDS011;16245;51.170;4.884;2022-12-16T00:36:41;48.45;;;29.27;;
29202;SDS011;16245;51.170;4.884;2022-12-16T00:39:08;49.85;;;28.27;;
29202;SDS011;16245;51.170;4.884;2022-12-16T00:41:34;41.13;;;26.67;;
29202;SDS011;16245;51.170;4.884;2022-12-16T00:44:00;42.45;;;26.92;;
29202;SDS011;16245;51.170;4.884;2022-12-16T00:46:26;48.70;;;29.52;;
29202;SDS011;16245;51.170;4.884;2022-12-16T00:48:51;47.70;;;28.33;;
29202;SDS011;16245;51.170;4.884;2022-12-16T00:51:17;42.97;;;27.60;;
29202;SDS011;16245;51.170;4.884;2022-12-16T00:53:43;49.03;;;28.75;;
29202;SDS011;16245;51.170;4.884;2022-12-16T00:56:09;44.67;;;29.45;;
29202;SDS011;16245;51.170;4.884;2022-12-16T00:58:38;42.13;;;27.92;;
29202;SDS011;16245;51.170;4.884;2022-12-16T01:01:05;43.95;;;27.10;;
29202;SDS011;16245;51.170;4.884;2022-12-16T01:03:32;45.13;;;29.13;;
29202;SDS011;16245;51.170;4.884;2022-12-16T01:05:58;46.08;;;28.85;;
29202;SDS011;16245;51.170;4.884;2022-12-16T01:08:24;39.47;;;26.40;;
29202;SDS011;16245;51.170;4.884;2022-12-16T01:10:50;39.05;;;27.05;;
29202;SDS011;16245;51.170;4.884;2022-12-16T01:13:18;42.22;;;26.10;;
29202;SDS011;16245;51.170;4.884;2022-12-16T01:15:44;43.10;;;27.10;;
29202;SDS011;16245;51.170;4.884;2022-12-16T01:18:10;40.85;;;25.25;;
29202;SDS011;16245;51.170;4.884;2022-12-16T01:20:36;37.25;;;26.38;;
29202;SDS011;16245;51.170;4.884;2022-12-16T01:23:02;40.17;;;26.15;;
29202;SDS011;16245;51.170;4.884;2022-12-16T01:25:28;43.50;;;26.83;;
29202;SDS011;16245;51.170;4.884;2022-12-16T01:27:54;36.92;;;24.58;;
29202;SDS011;16245;51.170;4.884;2022-12-16T01:30:20;37.78;;;24.88;;
29202;SDS011;16245;51.170;4.884;2022-12-16T01:32:46;43.08;;;26.40;;
29202;SDS011;16245;51.170;4.884;2022-12-16T01:35:12;44.33;;;25.30;;
29202;SDS011;16245;51.170;4.884;2022-12-16T01:37:38;41.50;;;25.85;;
29202;SDS011;16245;51.170;4.884;2022-12-16T01:40:04;40.78;;;25.65;;
29202;SDS011;16245;51.170;4.884;2022-12-16T01:42:31;38.25;;;24.83;;
29202;SDS011;16245;51.170;4.884;2022-12-16T01:45:20;42.22;;;25.20;;
29202;SDS011;16245;51.170;4.884;2022-12-16T01:47:50;40.00;;;26.00;;
29202;SDS011;16245;51.170;4.884;2022-12-16T01:50:18;46.55;;;26.83;;
29202;SDS011;16245;51.170;4.884;2022-12-16T01:52:45;39.30;;;25.60;;
29202;SDS011;16245;51.170;4.884;2022-12-16T01:55:19;41.17;;;26.38;;
29202;SDS011;16245;51.170;4.884;2022-12-16T01:57:49;43.03;;;26.85;;
29202;SDS011;16245;51.170;4.884;2022-12-16T02:00:19;44.85;;;28.42;;
29202;SDS011;16245;51.170;4.884;2022-12-16T02:02:45;44.30;;;26.52;;
29202;SDS011;16245;51.170;4.884;2022-12-16T02:05:11;42.70;;;27.02;;
29202;SDS011;16245;51.170;4.884;2022-12-16T02:07:59;43.50;;;27.73;;
29202;SDS011;16245;51.170;4.884;2022-12-16T02:33:09;47.75;;;30.17;;
29202;SDS011;16245;51.170;4.884;2022-12-16T02:35:39;45.72;;;27.48;;
29202;SDS011;16245;51.170;4.884;2022-12-16T02:41:11;41.78;;;27.15;;
29202;SDS011;16245;51.170;4.884;2022-12-16T02:43:49;42.33;;;28.02;;
29202;SDS011;16245;51.170;4.884;2022-12-16T02:46:26;44.70;;;27.80;;
29202;SDS011;16245;51.170;4.884;2022-12-16T02:48:54;44.08;;;27.75;;
29202;SDS011;16245;51.170;4.884;2022-12-16T02:51:20;43.47;;;28.15;;
29202;SDS011;16245;51.170;4.884;2022-12-16T02:53:49;44.78;;;29.38;;
29202;SDS011;16245;51.170;4.884;2022-12-16T02:59:13;42.58;;;29.00;;
29202;SDS011;16245;51.170;4.884;2022-12-16T03:04:15;42.70;;;27.45;;
29202;SDS011;16245;51.170;4.884;2022-12-16T03:06:46;42.03;;;27.73;;
29202;SDS011;16245;51.170;4.884;2022-12-16T03:09:14;46.75;;;29.38;;
29202;SDS011;16245;51.170;4.884;2022-12-16T03:11:44;44.17;;;27.95;;
29202;SDS011;16245;51.170;4.884;2022-12-16T03:14:13;45.47;;;28.40;;
29202;SDS011;16245;51.170;4.884;2022-12-16T03:16:41;51.38;;;27.95;;
29202;SDS011;16245;51.170;4.884;2022-12-16T03:19:09;45.17;;;27.00;;
29202;SDS011;16245;51.170;4.884;2022-12-16T03:21:48;45.00;;;27.98;;
29202;SDS011;16245;51.170;4.884;2022-12-16T03:24:25;39.97;;;25.85;;
29202;SDS011;16245;51.170;4.884;2022-12-16T03:26:57;41.95;;;26.15;;
29202;SDS011;16245;51.170;4.884;2022-12-16T03:29:38;37.63;;;26.95;;
29202;SDS011;16245;51.170;4.884;2022-12-16T03:32:28;41.47;;;27.88;;
29202;SDS011;16245;51.170;4.884;2022-12-16T03:35:10;43.83;;;28.48;;
29202;SDS011;16245;51.170;4.884;2022-12-16T03:37:48;40.72;;;25.63;;
29202;SDS011;16245;51.170;4.884;2022-12-16T03:40:16;39.67;;;26.95;;
29202;SDS011;16245;51.170;4.884;2022-12-16T03:42:45;41.97;;;27.70;;
29202;SDS011;16245;51.170;4.884;2022-12-16T03:45:14;43.30;;;28.48;;
29202;SDS011;16245;51.170;4.884;2022-12-16T03:47:47;44.55;;;28.08;;
29202;SDS011;16245;51.170;4.884;2022-12-16T03:50:14;45.35;;;28.92;;
29202;SDS011;16245;51.170;4.884;2022-12-16T03:52:41;47.03;;;26.98;;
29202;SDS011;16245;51.170;4.884;2022-12-16T03:55:07;56.03;;;31.50;;
29202;SDS011;16245;51.170;4.884;2022-12-16T03:57:33;56.25;;;30.17;;
29202;SDS011;16245;51.170;4.884;2022-12-16T03:59:58;59.15;;;32.08;;
29202;SDS011;16245;51.170;4.884;2022-12-16T04:02:24;61.60;;;31.45;;
29202;SDS011;16245;51.170;4.884;2022-12-16T04:04:49;72.10;;;31.98;;
29202;SDS011;16245;51.170;4.884;2022-12-16T04:07:15;61.88;;;31.25;;
29202;SDS011;16245;51.170;4.884;2022-12-16T04:09:50;70.38;;;34.97;;
29202;SDS011;16245;51.170;4.884;2022-12-16T04:12:16;63.50;;;32.80;;
29202;SDS011;16245;51.170;4.884;2022-12-16T04:15:01;73.40;;;35.13;;
29202;SDS011;16245;51.170;4.884;2022-12-16T04:17:46;69.35;;;32.83;;
29202;SDS011;16245;51.170;4.884;2022-12-16T04:20:31;80.05;;;36.25;;
29202;SDS011;16245;51.170;4.884;2022-12-16T04:23:19;77.70;;;35.42;;
29202;SDS011;16245;51.170;4.884;2022-12-16T04:26:04;66.88;;;32.42;;
29202;SDS011;16245;51.170;4.884;2022-12-16T04:28:29;74.85;;;35.47;;
29202;SDS011;16245;51.170;4.884;2022-12-16T04:30:55;78.45;;;36.03;;
29202;SDS011;16245;51.170;4.884;2022-12-16T04:33:22;74.95;;;37.58;;
29202;SDS011;16245;51.170;4.884;2022-12-16T04:36:06;78.68;;;37.33;;
29202;SDS011;16245;51.170;4.884;2022-12-16T04:38:51;76.93;;;34.83;;
29202;SDS011;16245;51.170;4.884;2022-12-16T04:41:35;74.28;;;35.15;;
29202;SDS011;16245;51.170;4.884;2022-12-16T04:44:20;67.85;;;34.47;;
29202;SDS011;16245;51.170;4.884;2022-12-16T04:47:05;73.85;;;34.08;;
29202;SDS011;16245;51.170;4.884;2022-12-16T04:49:50;75.63;;;35.33;;
29202;SDS011;16245;51.170;4.884;2022-12-16T04:52:34;80.78;;;35.33;;
29202;SDS011;16245;51.170;4.884;2022-12-16T04:55:18;77.55;;;34.72;;
29202;SDS011;16245;51.170;4.884;2022-12-16T04:58:02;80.22;;;36.85;;
29202;SDS011;16245;51.170;4.884;2022-12-16T05:00:47;71.72;;;36.33;;
29202;SDS011;16245;51.170;4.884;2022-12-16T05:03:32;86.90;;;36.28;;
29202;SDS011;16245;51.170;4.884;2022-12-16T05:06:17;86.00;;;36.03;;
29202;SDS011;16245;51.170;4.884;2022-12-16T05:09:02;91.80;;;37.53;;
29202;SDS011;16245;51.170;4.884;2022-12-16T05:11:47;89.85;;;38.55;;
29202;SDS011;16245;51.170;4.884;2022-12-16T05:14:31;81.18;;;35.35;;
29202;SDS011;16245;51.170;4.884;2022-12-16T05:17:15;84.00;;;36.53;;
29202;SDS011;16245;51.170;4.884;2022-12-16T05:19:59;82.05;;;36.35;;
29202;SDS011;16245;51.170;4.884;2022-12-16T05:22:43;75.07;;;34.25;;
29202;SDS011;16245;51.170;4.884;2022-12-16T05:25:27;79.82;;;33.30;;
29202;SDS011;16245;51.170;4.884;2022-12-16T05:28:12;87.70;;;34.50;;
29202;SDS011;16245;51.170;4.884;2022-12-16T05:30:56;74.75;;;34.28;;
29202;SDS011;16245;51.170;4.884;2022-12-16T05:33:40;73.75;;;33.00;;
29202;SDS011;16245;51.170;4.884;2022-12-16T05:36:24;76.53;;;32.58;;
29202;SDS011;16245;51.170;4.884;2022-12-16T05:39:09;70.10;;;33.63;;
29202;SDS011;16245;51.170;4.884;2022-12-16T05:41:54;70.90;;;34.28;;
29202;SDS011;16245;51.170;4.884;2022-12-16T05:44:38;70.43;;;32.05;;
29202;SDS011;16245;51.170;4.884;2022-12-16T05:47:22;59.05;;;30.58;;
29202;SDS011;16245;51.170;4.884;2022-12-16T05:50:07;59.55;;;29.42;;
29202;SDS011;16245;51.170;4.884;2022-12-16T05:52:53;65.25;;;31.67;;
29202;SDS011;16245;51.170;4.884;2022-12-16T05:55:39;61.60;;;29.83;;
29202;SDS011;16245;51.170;4.884;2022-12-16T05:58:24;56.20;;;29.17;;
29202;SDS011;16245;51.170;4.884;2022-12-16T06:01:08;58.38;;;30.65;;
29202;SDS011;16245;51.170;4.884;2022-12-16T06:03:52;54.95;;;29.70;;
29202;SDS011;16245;51.170;4.884;2022-12-16T06:06:36;51.40;;;30.23;;
29202;SDS011;16245;51.170;4.884;2022-12-16T06:09:21;51.20;;;28.40;;
29202;SDS011;16245;51.170;4.884;2022-12-16T06:12:06;48.38;;;28.08;;
29202;SDS011;16245;51.170;4.884;2022-12-16T06:14:50;51.05;;;28.20;;
29202;SDS011;16245;51.170;4.884;2022-12-16T06:17:34;44.88;;;24.88;;
29202;SDS011;16245;51.170;4.884;2022-12-16T06:20:18;47.55;;;26.20;;
29202;SDS011;16245;51.170;4.884;2022-12-16T06:23:02;36.25;;;22.52;;
29202;SDS011;16245;51.170;4.884;2022-12-16T06:25:46;40.72;;;22.63;;
29202;SDS011;16245;51.170;4.884;2022-12-16T06:28:48;40.92;;;23.85;;
29202;SDS011;16245;51.170;4.884;2022-12-16T06:31:33;42.13;;;22.80;;
29202;SDS011;16245;51.170;4.884;2022-12-16T06:34:17;40.90;;;22.92;;
29202;SDS011;16245;51.170;4.884;2022-12-16T06:37:01;39.58;;;23.52;;
29202;SDS011;16245;51.170;4.884;2022-12-16T06:39:45;34.00;;;21.92;;
29202;SDS011;16245;51.170;4.884;2022-12-16T06:42:46;33.22;;;21.10;;
29202;SDS011;16245;51.170;4.884;2022-12-16T06:45:31;31.92;;;21.58;;
29202;SDS011;16245;51.170;4.884;2022-12-16T06:48:15;35.65;;;22.60;;
29202;SDS011;16245;51.170;4.884;2022-12-16T06:50:59;36.22;;;23.13;;
29202;SDS011;16245;51.170;4.884;2022-12-16T06:53:43;39.00;;;21.75;;
29202;SDS011;16245;51.170;4.884;2022-12-16T06:56:27;36.33;;;23.08;;
29202;SDS011;16245;51.170;4.884;2022-12-16T06:59:11;37.15;;;22.88;;
29202;SDS011;16245;51.170;4.884;2022-12-16T07:01:55;37.55;;;21.92;;
29202;SDS011;16245;51.170;4.884;2022-12-16T07:04:39;40.72;;;23.50;;
29202;SDS011;16245;51.170;4.884;2022-12-16T07:07:22;33.13;;;22.13;;
29202;SDS011;16245;51.170;4.884;2022-12-16T07:10:07;36.65;;;23.80;;
29202;SDS011;16245;51.170;4.884;2022-12-16T07:12:51;33.67;;;22.08;;
29202;SDS011;16245;51.170;4.884;2022-12-16T07:15:39;34.97;;;22.63;;
29202;SDS011;16245;51.170;4.884;2022-12-16T07:18:23;36.03;;;22.30;;
29202;SDS011;16245;51.170;4.884;2022-12-16T07:21:06;32.92;;;21.45;;
29202;SDS011;16245;51.170;4.884;2022-12-16T07:23:50;33.00;;;23.00;;
29202;SDS011;16245;51.170;4.884;2022-12-16T07:26:35;34.58;;;23.70;;
29202;SDS011;16245;51.170;4.884;2022-12-16T07:29:19;36.22;;;21.23;;
29202;SDS011;16245;51.170;4.884;2022-12-16T07:32:16;34.10;;;21.60;;
29202;SDS011;16245;51.170;4.884;2022-12-16T07:35:00;30.95;;;20.65;;
29202;SDS011;16245;51.170;4.884;2022-12-16T07:37:44;32.20;;;21.08;;
29202;SDS011;16245;51.170;4.884;2022-12-16T07:40:28;36.22;;;22.52;;
29202;SDS011;16245;51.170;4.884;2022-12-16T07:43:12;34.10;;;21.90;;
29202;SDS011;16245;51.170;4.884;2022-12-16T07:45:56;33.78;;;22.13;;
29202;SDS011;16245;51.170;4.884;2022-12-16T07:48:40;41.67;;;23.27;;
29202;SDS011;16245;51.170;4.884;2022-12-16T07:51:24;35.30;;;23.08;;
29202;SDS011;16245;51.170;4.884;2022-12-16T07:54:08;40.13;;;23.52;;
29202;SDS011;16245;51.170;4.884;2022-12-16T07:56:52;35.33;;;22.10;;
29202;SDS011;16245;51.170;4.884;2022-12-16T07:59:36;41.80;;;24.85;;
29202;SDS011;16245;51.170;4.884;2022-12-16T08:02:20;37.97;;;22.77;;
29202;SDS011;16245;51.170;4.884;2022-12-16T08:05:04;35.28;;;23.15;;
29202;SDS011;16245;51.170;4.884;2022-12-16T08:07:48;39.72;;;23.13;;
29202;SDS011;16245;51.170;4.884;2022-12-16T08:10:32;36.15;;;23.42;;
29202;SDS011;16245;51.170;4.884;2022-12-16T08:13:16;39.42;;;24.73;;
29202;SDS011;16245;51.170;4.884;2022-12-16T08:16:11;42.13;;;24.42;;
29202;SDS011;16245;51.170;4.884;2022-12-16T08:18:55;41.95;;;24.85;;
29202;SDS011;16245;51.170;4.884;2022-12-16T08:21:40;38.30;;;23.58;;
29202;SDS011;16245;51.170;4.884;2022-12-16T08:24:24;36.80;;;22.88;;
29202;SDS011;16245;51.170;4.884;2022-12-16T08:27:08;37.60;;;23.55;;
29202;SDS011;16245;51.170;4.884;2022-12-16T08:29:52;38.60;;;23.90;;
29202;SDS011;16245;51.170;4.884;2022-12-16T08:32:35;41.03;;;24.05;;
29202;SDS011;16245;51.170;4.884;2022-12-16T08:35:19;38.17;;;24.92;;
29202;SDS011;16245;51.170;4.884;2022-12-16T08:38:03;35.75;;;23.38;;
29202;SDS011;16245;51.170;4.884;2022-12-16T08:40:47;38.75;;;24.13;;
29202;SDS011;16245;51.170;4.884;2022-12-16T08:43:34;37.65;;;23.55;;
29202;SDS011;16245;51.170;4.884;2022-12-16T08:46:18;34.20;;;22.92;;
29202;SDS011;16245;51.170;4.884;2022-12-16T08:49:03;35.80;;;22.92;;
29202;SDS011;16245;51.170;4.884;2022-12-16T08:51:48;36.35;;;23.58;;
29202;SDS011;16245;51.170;4.884;2022-12-16T08:54:32;35.90;;;24.13;;
29202;SDS011;16245;51.170;4.884;2022-12-16T08:57:17;33.63;;;23.00;;
29202;SDS011;16245;51.170;4.884;2022-12-16T09:00:02;36.40;;;24.40;;
29202;SDS011;16245;51.170;4.884;2022-12-16T09:02:47;37.40;;;24.15;;
29202;SDS011;16245;51.170;4.884;2022-12-16T09:05:37;37.40;;;24.13;;
29202;SDS011;16245;51.170;4.884;2022-12-16T09:08:21;36.80;;;23.35;;
29202;SDS011;16245;51.170;4.884;2022-12-16T09:11:06;36.70;;;22.52;;
29202;SDS011;16245;51.170;4.884;2022-12-16T09:13:50;39.15;;;23.98;;
29202;SDS011;16245;51.170;4.884;2022-12-16T09:16:33;37.53;;;23.65;;
29202;SDS011;16245;51.170;4.884;2022-12-16T09:19:17;37.67;;;23.40;;
29202;SDS011;16245;51.170;4.884;2022-12-16T09:22:01;32.28;;;22.48;;
29202;SDS011;16245;51.170;4.884;2022-12-16T09:24:45;39.45;;;23.17;;
29202;SDS011;16245;51.170;4.884;2022-12-16T09:27:29;37.83;;;24.35;;
29202;SDS011;16245;51.170;4.884;2022-12-16T09:30:18;33.30;;;22.20;;
29202;SDS011;16245;51.170;4.884;2022-12-16T09:33:02;36.33;;;23.65;;
29202;SDS011;16245;51.170;4.884;2022-12-16T09:35:47;35.38;;;22.13;;
29202;SDS011;16245;51.170;4.884;2022-12-16T09:38:30;34.38;;;22.83;;
29202;SDS011;16245;51.170;4.884;2022-12-16T09:44:19;35.40;;;21.73;;
29202;SDS011;16245;51.170;4.884;2022-12-16T09:47:29;35.05;;;22.75;;
29202;SDS011;16245;51.170;4.884;2022-12-16T09:50:37;35.38;;;21.63;;
29202;SDS011;16245;51.170;4.884;2022-12-16T09:53:23;43.13;;;24.48;;
29202;SDS011;16245;51.170;4.884;2022-12-16T09:56:13;37.47;;;23.08;;
29202;SDS011;16245;51.170;4.884;2022-12-16T09:59:11;36.72;;;23.42;;
29202;SDS011;16245;51.170;4.884;2022-12-16T10:01:57;35.08;;;22.42;;
29202;SDS011;16245;51.170;4.884;2022-12-16T10:04:43;34.30;;;23.38;;
29202;SDS011;16245;51.170;4.884;2022-12-16T10:07:33;34.78;;;23.85;;
29202;SDS011;16245;51.170;4.884;2022-12-16T10:22:38;34.40;;;23.33;;
29202;SDS011;16245;51.170;4.884;2022-12-16T10:25:48;34.05;;;23.27;;
29202;SDS011;16245;51.170;4.884;2022-12-16T10:28:48;31.27;;;20.88;;
29202;SDS011;16245;51.170;4.884;2022-12-16T10:31:38;35.22;;;21.33;;
29202;SDS011;16245;51.170;4.884;2022-12-16T10:34:26;34.22;;;21.55;;
29202;SDS011;16245;51.170;4.884;2022-12-16T10:37:13;33.47;;;21.35;;
29202;SDS011;16245;51.170;4.884;2022-12-16T10:40:03;35.22;;;23.50;;
29202;SDS011;16245;51.170;4.884;2022-12-16T10:42:51;36.28;;;22.45;;
29202;SDS011;16245;51.170;4.884;2022-12-16T10:45:53;33.55;;;21.77;;
29202;SDS011;16245;51.170;4.884;2022-12-16T10:48:39;30.67;;;20.85;;
29202;SDS011;16245;51.170;4.884;2022-12-16T10:51:25;31.50;;;19.60;;
29202;SDS011;16245;51.170;4.884;2022-12-16T10:57:40;29.42;;;19.90;;
29202;SDS011;16245;51.170;4.884;2022-12-16T11:00:38;30.42;;;20.10;;
29202;SDS011;16245;51.170;4.884;2022-12-16T11:03:31;40.22;;;22.10;;
29202;SDS011;16245;51.170;4.884;2022-12-16T11:06:36;37.88;;;22.95;;
29202;SDS011;16245;51.170;4.884;2022-12-16T11:12:21;38.80;;;24.02;;
29202;SDS011;16245;51.170;4.884;2022-12-16T11:15:26;34.05;;;22.17;;
29202;SDS011;16245;51.170;4.884;2022-12-16T11:18:19;39.33;;;24.17;;
29202;SDS011;16245;51.170;4.884;2022-12-16T11:21:12;37.22;;;23.52;;
29202;SDS011;16245;51.170;4.884;2022-12-16T11:24:20;40.25;;;23.27;;
29202;SDS011;16245;51.170;4.884;2022-12-16T11:27:04;42.22;;;25.02;;
29202;SDS011;16245;51.170;4.884;2022-12-16T11:36:21;38.03;;;22.95;;
29202;SDS011;16245;51.170;4.884;2022-12-16T11:39:06;35.13;;;22.70;;
29202;SDS011;16245;51.170;4.884;2022-12-16T11:41:57;42.22;;;24.45;;
29202;SDS011;16245;51.170;4.884;2022-12-16T11:44:45;34.33;;;21.15;;
29202;SDS011;16245;51.170;4.884;2022-12-16T11:47:40;34.45;;;22.58;;
29202;SDS011;16245;51.170;4.884;2022-12-16T11:50:31;35.50;;;19.85;;
29202;SDS011;16245;51.170;4.884;2022-12-16T11:53:31;34.60;;;20.27;;
29202;SDS011;16245;51.170;4.884;2022-12-16T11:56:28;31.05;;;20.20;;
29202;SDS011;16245;51.170;4.884;2022-12-16T12:02:12;38.47;;;22.00;;
29202;SDS011;16245;51.170;4.884;2022-12-16T12:05:01;31.42;;;21.15;;
29202;SDS011;16245;51.170;4.884;2022-12-16T12:10:52;37.65;;;20.88;;
29202;SDS011;16245;51.170;4.884;2022-12-16T12:23:10;27.13;;;17.77;;
29202;SDS011;16245;51.170;4.884;2022-12-16T12:26:06;25.58;;;14.98;;
29202;SDS011;16245;51.170;4.884;2022-12-16T12:41:26;36.47;;;19.65;;
29202;SDS011;16245;51.170;4.884;2022-12-16T12:47:26;29.58;;;17.95;;
29202;SDS011;16245;51.170;4.884;2022-12-16T12:50:15;37.45;;;19.42;;
29202;SDS011;16245;51.170;4.884;2022-12-16T12:58:53;37.08;;;21.63;;
29202;SDS011;16245;51.170;4.884;2022-12-16T13:01:41;37.97;;;20.50;;
29202;SDS011;16245;51.170;4.884;2022-12-16T13:04:28;41.47;;;21.52;;
29202;SDS011;16245;51.170;4.884;2022-12-16T13:07:14;34.53;;;19.83;;
29202;SDS011;16245;51.170;4.884;2022-12-16T13:10:28;33.58;;;20.20;;
29202;SDS011;16245;51.170;4.884;2022-12-16T13:16:02;28.05;;;17.95;;
29202;SDS011;16245;51.170;4.884;2022-12-16T13:25:31;38.45;;;21.50;;
29202;SDS011;16245;51.170;4.884;2022-12-16T13:28:23;32.65;;;19.10;;
29202;SDS011;16245;51.170;4.884;2022-12-16T13:31:13;39.28;;;23.17;;
29202;SDS011;16245;51.170;4.884;2022-12-16T13:34:00;30.70;;;19.27;;
29202;SDS011;16245;51.170;4.884;2022-12-16T13:36:53;30.58;;;17.98;;
29202;SDS011;16245;51.170;4.884;2022-12-16T13:39:39;26.60;;;15.18;;
29202;SDS011;16245;51.170;4.884;2022-12-16T13:45:30;25.27;;;13.75;;
29202;SDS011;16245;51.170;4.884;2022-12-16T13:48:29;23.02;;;13.25;;
29202;SDS011;16245;51.170;4.884;2022-12-16T13:52:11;30.95;;;16.15;;
29202;SDS011;16245;51.170;4.884;2022-12-16T13:54:40;29.50;;;18.77;;
29202;SDS011;16245;51.170;4.884;2022-12-16T13:57:34;27.80;;;14.30;;
29202;SDS011;16245;51.170;4.884;2022-12-16T14:00:26;23.38;;;13.13;;
29202;SDS011;16245;51.170;4.884;2022-12-16T14:03:19;29.70;;;14.45;;
29202;SDS011;16245;51.170;4.884;2022-12-16T14:06:05;26.45;;;14.77;;
29202;SDS011;16245;51.170;4.884;2022-12-16T14:08:56;26.23;;;14.52;;
29202;SDS011;16245;51.170;4.884;2022-12-16T14:14:59;29.92;;;14.77;;
29202;SDS011;16245;51.170;4.884;2022-12-16T14:18:03;26.17;;;13.00;;
29202;SDS011;16245;51.170;4.884;2022-12-16T14:20:54;20.95;;;13.15;;
29202;SDS011;16245;51.170;4.884;2022-12-16T14:23:45;26.85;;;15.52;;
29202;SDS011;16245;51.170;4.884;2022-12-16T14:26:36;24.27;;;13.35;;
29202;SDS011;16245;51.170;4.884;2022-12-16T14:29:27;21.67;;;12.85;;
29202;SDS011;16245;51.170;4.884;2022-12-16T14:35:16;19.33;;;12.65;;
29202;SDS011;16245;51.170;4.884;2022-12-16T14:41:19;20.35;;;13.25;;
29202;SDS011;16245;51.170;4.884;2022-12-16T14:44:14;20.52;;;12.05;;
29202;SDS011;16245;51.170;4.884;2022-12-16T14:47:04;19.80;;;12.52;;
29202;SDS011;16245;51.170;4.884;2022-12-16T14:49:52;16.98;;;11.75;;
29202;SDS011;16245;51.170;4.884;2022-12-16T14:52:37;26.27;;;13.82;;
29202;SDS011;16245;51.170;4.884;2022-12-16T14:55:32;20.85;;;12.73;;
29202;SDS011;16245;51.170;4.884;2022-12-16T14:58:19;26.45;;;13.43;;
29202;SDS011;16245;51.170;4.884;2022-12-16T15:01:21;21.17;;;12.07;;
29202;SDS011;16245;51.170;4.884;2022-12-16T15:04:17;21.27;;;12.82;;
29202;SDS011;16245;51.170;4.884;2022-12-16T15:07:03;21.15;;;12.85;;
29202;SDS011;16245;51.170;4.884;2022-12-16T15:09:51;23.40;;;12.70;;
29202;SDS011;16245;51.170;4.884;2022-12-16T15:12:39;20.10;;;12.73;;
29202;SDS011;16245;51.170;4.884;2022-12-16T15:18:27;21.42;;;12.27;;
29202;SDS011;16245;51.170;4.884;2022-12-16T15:21:20;21.75;;;11.68;;
29202;SDS011;16245;51.170;4.884;2022-12-16T15:24:08;21.00;;;13.32;;
29202;SDS011;16245;51.170;4.884;2022-12-16T15:30:01;24.77;;;14.27;;
29202;SDS011;16245;51.170;4.884;2022-12-16T15:32:55;22.05;;;13.80;;
29202;SDS011;16245;51.170;4.884;2022-12-16T15:35:39;21.33;;;13.57;;
29202;SDS011;16245;51.170;4.884;2022-12-16T15:38:27;22.63;;;13.63;;
29202;SDS011;16245;51.170;4.884;2022-12-16T15:41:32;19.17;;;13.43;;
29202;SDS011;16245;51.170;4.884;2022-12-16T15:44:21;19.58;;;12.30;;
29202;SDS011;16245;51.170;4.884;2022-12-16T15:50:15;20.67;;;12.13;;
29202;SDS011;16245;51.170;4.884;2022-12-16T15:53:13;17.98;;;12.00;;
29202;SDS011;16245;51.170;4.884;2022-12-16T15:56:21;24.48;;;13.35;;
29202;SDS011;16245;51.170;4.884;2022-12-16T16:02:14;23.60;;;14.20;;
29202;SDS011;16245;51.170;4.884;2022-12-16T16:05:12;23.73;;;14.02;;
29202;SDS011;16245;51.170;4.884;2022-12-16T16:08:08;26.98;;;15.73;;
29202;SDS011;16245;51.170;4.884;2022-12-16T16:10:53;25.25;;;15.73;;
29202;SDS011;16245;51.170;4.884;2022-12-16T16:13:38;34.05;;;17.63;;
29202;SDS011;16245;51.170;4.884;2022-12-16T16:16:23;27.08;;;16.63;;
29202;SDS011;16245;51.170;4.884;2022-12-16T16:19:20;30.23;;;16.05;;
29202;SDS011;16245;51.170;4.884;2022-12-16T16:22:11;23.50;;;15.60;;
29202;SDS011;16245;51.170;4.884;2022-12-16T16:24:57;25.33;;;16.50;;
29202;SDS011;16245;51.170;4.884;2022-12-16T16:27:42;29.42;;;16.27;;
29202;SDS011;16245;51.170;4.884;2022-12-16T16:30:26;27.92;;;16.55;;
29202;SDS011;16245;51.170;4.884;2022-12-16T16:33:11;28.42;;;16.00;;
29202;SDS011;16245;51.170;4.884;2022-12-16T16:35:54;33.22;;;16.65;;
29202;SDS011;16245;51.170;4.884;2022-12-16T16:38:38;27.73;;;17.52;;
29202;SDS011;16245;51.170;4.884;2022-12-16T16:41:22;27.77;;;15.60;;
29202;SDS011;16245;51.170;4.884;2022-12-16T16:44:07;30.38;;;17.38;;
29202;SDS011;16245;51.170;4.884;2022-12-16T16:46:51;23.08;;;15.60;;
29202;SDS011;16245;51.170;4.884;2022-12-16T16:52:20;27.08;;;16.98;;
29202;SDS011;16245;51.170;4.884;2022-12-16T16:55:06;27.55;;;15.95;;
29202;SDS011;16245;51.170;4.884;2022-12-16T16:57:56;23.80;;;15.20;;
29202;SDS011;16245;51.170;4.884;2022-12-16T17:00:47;25.65;;;15.27;;
29202;SDS011;16245;51.170;4.884;2022-12-16T17:03:31;25.75;;;16.63;;
29202;SDS011;16245;51.170;4.884;2022-12-16T17:06:15;23.95;;;15.85;;
29202;SDS011;16245;51.170;4.884;2022-12-16T17:08:59;25.88;;;15.88;;
29202;SDS011;16245;51.170;4.884;2022-12-16T17:11:44;33.30;;;17.92;;
29202;SDS011;16245;51.170;4.884;2022-12-16T17:14:28;26.23;;;17.10;;
29202;SDS011;16245;51.170;4.884;2022-12-16T17:17:15;28.55;;;16.80;;
29202;SDS011;16245;51.170;4.884;2022-12-16T17:19:59;31.02;;;17.70;;
29202;SDS011;16245;51.170;4.884;2022-12-16T17:22:43;31.17;;;17.60;;
29202;SDS011;16245;51.170;4.884;2022-12-16T17:25:27;30.42;;;16.80;;
29202;SDS011;16245;51.170;4.884;2022-12-16T17:28:11;35.38;;;19.77;;
29202;SDS011;16245;51.170;4.884;2022-12-16T17:30:55;32.10;;;19.02;;
29202;SDS011;16245;51.170;4.884;2022-12-16T17:33:40;35.03;;;20.98;;
29202;SDS011;16245;51.170;4.884;2022-12-16T17:36:24;35.95;;;19.88;;
29202;SDS011;16245;51.170;4.884;2022-12-16T17:39:08;36.13;;;19.60;;
29202;SDS011;16245;51.170;4.884;2022-12-16T17:41:53;34.50;;;18.98;;
29202;SDS011;16245;51.170;4.884;2022-12-16T17:44:37;39.53;;;20.50;;
29202;SDS011;16245;51.170;4.884;2022-12-16T17:47:21;40.40;;;21.58;;
29202;SDS011;16245;51.170;4.884;2022-12-16T17:50:05;32.90;;;17.67;;
29202;SDS011;16245;51.170;4.884;2022-12-16T17:52:54;33.30;;;17.33;;
29202;SDS011;16245;51.170;4.884;2022-12-16T17:55:39;27.63;;;18.15;;
29202;SDS011;16245;51.170;4.884;2022-12-16T17:58:28;32.13;;;16.67;;
29202;SDS011;16245;51.170;4.884;2022-12-16T18:01:13;27.23;;;17.40;;
29202;SDS011;16245;51.170;4.884;2022-12-16T18:03:58;27.17;;;18.67;;